Time;durP1;ratioP1;P1;durP2;ratioP2;P2;SDS_P1;SDS_P2;PMS_P1;PMS_P2;Temp;Humidity;BMP_temperature;BMP_pressure;BME280_temperature;BME280_humidity;BME280_pressure;Samples;Min_cycle;Max_cycle;Signal;HPM_P1;HPM_P2
2023/06/19 00:01:42;;;;;;;;;;;;;;;23.00;31.68;97563.03;4920592;29;1349;-80
2023/06/19 00:04:09;;;;;;;;;;;;;;;22.74;32.12;97561.56;4948290;29;902;-80
2023/06/19 00:06:34;;;;;;;;;;;;;;;22.67;32.48;97559.03;4946754;28;822;-80
2023/06/19 00:09:00;;;;;;;;;;;;;;;22.83;31.98;97559.59;4977421;28;1394;-80
2023/06/19 00:11:25;;;;;;;;;;;;;;;22.52;32.86;97567.28;4963347;28;1910;-80
2023/06/19 00:13:52;;;;;;;;;;;;;;;22.61;32.70;97564.50;4962098;28;1219;-80
2023/06/19 00:16:19;;;;;;;;;;;;;;;22.81;32.40;97562.09;4977819;28;1196;-80
2023/06/19 00:18:44;;;;;;;;;;;;;;;22.86;32.36;97555.03;4967440;28;1395;-80
2023/06/19 00:21:10;;;;;;;;;;;;;;;22.51;33.04;97565.69;4969974;28;1164;-79
2023/06/19 00:23:36;;;;;;;;;;;;;;;22.54;33.02;97570.44;4967926;28;1256;-80
2023/06/19 00:26:01;;;;;;;;;;;;;;;22.62;32.51;97566.06;5002764;28;1300;-80
2023/06/19 00:28:27;;;;;;;;;;;;;;;22.73;32.57;97569.28;4999911;28;1416;-80
2023/06/19 00:30:53;;;;;;;;;;;;;;;22.60;32.49;97562.94;4965977;28;1902;-80
2023/06/19 00:33:20;;;;;;;;;;;;;;;22.69;32.76;97571.50;4996862;28;935;-79
2023/06/19 00:35:45;;;;;;;;;;;;;;;22.70;32.72;97567.41;4998477;28;905;-80
2023/06/19 00:38:12;;;;;;;;;;;;;;;22.57;33.07;97575.19;4997361;28;921;-80
2023/06/19 00:40:37;;;;;;;;;;;;;;;22.57;32.87;97563.84;5018836;28;1605;-80
2023/06/19 00:43:03;;;;;;;;;;;;;;;22.76;32.50;97562.72;5004216;28;1134;-80
2023/06/19 00:45:28;;;;;;;;;;;;;;;22.73;32.71;97572.13;5021932;28;743;-80
2023/06/19 00:47:55;;;;;;;;;;;;;;;22.70;32.69;97575.91;5022116;28;735;-80
2023/06/19 00:50:21;;;;;;;;;;;;;;;22.65;32.78;97570.84;5021402;28;1955;-80
2023/06/19 00:52:47;;;;;;;;;;;;;;;22.79;32.25;97570.28;5039205;28;782;-80
2023/06/19 00:55:12;;;;;;;;;;;;;;;22.66;32.89;97572.41;5038388;28;886;-80
2023/06/19 00:57:39;;;;;;;;;;;;;;;22.69;32.72;97571.50;5022294;28;879;-80
2023/06/19 01:00:06;;;;;;;;;;;;;;;22.71;32.73;97568.97;5021030;28;1524;-80
2023/06/19 01:02:32;;;;;;;;;;;;;;;22.73;32.71;97572.13;5006201;28;1139;-80
2023/06/19 01:04:57;;;;;;;;;;;;;;;22.62;32.79;97577.41;5004976;28;1132;-80
2023/06/19 01:07:35;;;;;;;;;;;;;;;22.80;32.31;97569.03;5022042;28;884;-80
2023/06/19 01:10:05;;;;;;;;;;;;;;;22.65;32.70;97562.31;5020332;28;1894;-80
2023/06/19 01:12:33;;;;;;;;;;;;;;;22.74;32.54;97568.06;5023428;28;910;-80
2023/06/19 01:15:00;;;;;;;;;;;;;;;22.55;32.92;97572.03;5021087;28;867;-80
2023/06/19 01:17:29;;;;;;;;;;;;;;;22.66;32.83;97566.75;5022149;28;847;-80
2023/06/19 01:19:58;;;;;;;;;;;;;;;22.77;32.58;97572.78;5020280;28;1574;-79
2023/06/19 01:22:24;;;;;;;;;;;;;;;22.90;32.36;97580.44;5022396;28;1353;-80
2023/06/19 01:24:50;;;;;;;;;;;;;;;22.65;32.81;97573.69;5016879;28;1043;-80
2023/06/19 01:27:15;;;;;;;;;;;;;;;22.74;32.47;97578.59;5002009;28;1158;-80
2023/06/19 01:29:41;;;;;;;;;;;;;;;22.85;32.33;97579.00;4999750;28;1969;-80
2023/06/19 01:32:08;;;;;;;;;;;;;;;22.75;32.66;97577.38;5001595;28;1019;-79
2023/06/19 01:34:34;;;;;;;;;;;;;;;22.80;32.31;97571.88;4984419;28;1175;-79
2023/06/19 01:36:59;;;;;;;;;;;;;;;22.65;32.75;97575.72;4984804;28;957;-80
2023/06/19 01:39:25;;;;;;;;;;;;;;;22.63;32.82;97567.66;4982549;28;1428;-80
2023/06/19 01:41:51;;;;;;;;;;;;;;;22.52;32.99;97578.59;5001353;28;883;-80
2023/06/19 01:44:17;;;;;;;;;;;;;;;22.73;32.32;97572.13;4983773;28;884;-80
2023/06/19 01:46:48;;;;;;;;;;;;;;;22.66;32.67;97578.09;4984740;28;925;-80
2023/06/19 01:49:13;;;;;;;;;;;;;;;22.69;32.42;97571.50;4964496;28;1461;-80
2023/06/19 01:51:39;;;;;;;;;;;;;;;22.79;32.63;97575.94;4981541;28;1910;-80
2023/06/19 01:54:07;;;;;;;;;;;;;;;22.75;32.39;97572.47;4964194;28;1166;-80
2023/06/19 01:56:32;;;;;;;;;;;;;;;22.54;32.94;97576.91;4996584;28;1490;-80
2023/06/19 01:58:59;;;;;;;;;;;;;;;22.67;32.64;97574.00;5003273;28;1163;-80
2023/06/19 02:01:25;;;;;;;;;;;;;;;22.67;32.81;97574.00;4983682;28;1497;-79
2023/06/19 02:03:50;;;;;;;;;;;;;;;22.57;32.91;97578.00;5002292;28;1547;-80
2023/06/19 02:06:16;;;;;;;;;;;;;;;22.56;32.54;97582.13;4949985;29;1239;-80
2023/06/19 02:08:41;;;;;;;;;;;;;;;22.64;32.67;97580.59;4960350;29;849;-80
2023/06/19 02:11:10;;;;;;;;;;;;;;;22.87;32.19;97582.94;4962111;28;1981;-80
2023/06/19 02:13:36;;;;;;;;;;;;;;;22.61;32.22;97587.19;4960300;29;814;-80
2023/06/19 02:16:01;;;;;;;;;;;;;;;22.52;32.73;97599.25;4962294;29;928;-80
2023/06/19 02:18:27;;;;;;;;;;;;;;;22.69;32.38;97594.19;4944355;29;1247;-80
2023/06/19 02:20:53;;;;;;;;;;;;;;;22.68;32.46;97601.09;4962178;29;959;-80
2023/06/19 02:23:18;;;;;;;;;;;;;;;22.74;32.11;97596.44;4943876;29;1310;-80
2023/06/19 02:25:44;;;;;;;;;;;;;;;22.84;32.00;97600.88;4974340;28;1353;-80
2023/06/19 02:28:10;;;;;;;;;;;;;;;22.81;32.30;97603.88;4980269;28;1533;-80
2023/06/19 02:30:35;;;;;;;;;;;;;;;22.82;32.12;97606.22;4980392;28;1961;-80
2023/06/19 02:33:01;;;;;;;;;;;;;;;22.97;32.07;97608.56;4965513;28;1541;-80
2023/06/19 02:35:26;;;;;;;;;;;;;;;22.88;32.07;97607.25;4961425;29;1133;-79
2023/06/19 02:37:55;;;;;;;;;;;;;;;22.88;32.19;97618.59;4961212;29;1086;-80
2023/06/19 02:40:20;;;;;;;;;;;;;;;22.72;32.48;97609.47;4961304;29;747;-80
2023/06/19 02:42:47;;;;;;;;;;;;;;;22.64;32.69;97611.78;4958345;28;1371;-80
2023/06/19 02:45:13;;;;;;;;;;;;;;;22.72;32.46;97615.94;4999020;28;1169;-80
2023/06/19 02:47:40;;;;;;;;;;;;;;;22.84;32.22;97608.59;4963849;28;1714;-80
2023/06/19 02:50:05;;;;;;;;;;;;;;;22.88;32.05;97620.63;4979339;28;1981;-80
2023/06/19 02:52:31;;;;;;;;;;;;;;;22.72;32.37;97617.97;4928568;29;1583;-80
2023/06/19 02:54:58;;;;;;;;;;;;;;;22.80;32.11;97617.25;4944557;29;1251;-80
2023/06/19 02:57:24;;;;;;;;;;;;;;;22.58;32.84;97624.97;4945145;29;875;-79
2023/06/19 02:59:50;;;;;;;;;;;;;;;22.81;31.96;97635.88;4943766;29;1406;-80
2023/06/19 03:02:15;;;;;;;;;;;;;;;22.87;32.00;97628.34;4944248;29;1615;-80
2023/06/19 03:04:42;;;;;;;;;;;;;;;22.69;32.20;97621.72;4959497;29;1256;-80
2023/06/19 03:07:08;;;;;;;;;;;;;;;22.48;32.75;97626.94;4945086;29;1145;-80
2023/06/19 03:09:33;;;;;;;;;;;;;;;22.80;32.42;97627.81;4912177;29;1151;-80
2023/06/19 03:11:59;;;;;;;;;;;;;;;22.94;32.22;97632.19;4940863;29;1994;-80
2023/06/19 03:14:24;;;;;;;;;;;;;;;22.79;32.24;97624.16;4925485;29;822;-80
2023/06/19 03:16:50;;;;;;;;;;;;;;;22.66;32.53;97631.19;4922779;29;1252;-80
2023/06/19 03:19:16;;;;;;;;;;;;;;;22.74;32.43;97630.47;4950764;29;1285;-80
2023/06/19 03:21:42;;;;;;;;;;;;;;;22.77;32.38;97628.72;4963072;28;1517;-80
2023/06/19 03:24:08;;;;;;;;;;;;;;;22.82;32.19;97626.09;4931043;28;1153;-80
2023/06/19 03:26:36;;;;;;;;;;;;;;;22.81;32.50;97630.19;4963148;28;1286;-80
2023/06/19 03:29:02;;;;;;;;;;;;;;;23.00;32.22;97636.00;4965656;28;1217;-80
2023/06/19 03:31:36;;;;;;;;;;;;;;;22.94;32.21;97621.63;4967157;28;1914;-80
2023/06/19 03:34:02;;;;;;;;;;;;;;;22.98;32.40;97627.97;4997994;28;1437;-80
2023/06/19 03:36:28;;;;;;;;;;;;;;;22.93;32.28;97625.72;4982971;28;1315;-80
2023/06/19 03:38:55;;;;;;;;;;;;;;;22.71;32.80;97622.88;4982176;28;896;-79
2023/06/19 03:41:24;;;;;;;;;;;;;;;22.68;32.80;97620.16;5004057;28;1281;-79
2023/06/19 03:43:50;;;;;;;;;;;;;;;22.81;32.67;97624.50;5017963;28;1653;-80
2023/06/19 03:46:17;;;;;;;;;;;;;;;23.18;33.94;97630.44;5161592;23;3695;-79
2023/06/19 03:48:42;;;;;;;;;;;;;;;23.38;34.63;97633.69;5038407;28;1075;-80
2023/06/19 03:51:08;;;;;;;;;;;;;;;23.12;34.44;97626.63;5038991;28;1965;-79
2023/06/19 03:53:34;;;;;;;;;;;;;;;23.02;34.20;97630.66;5021028;28;1215;-79
2023/06/19 03:55:59;;;;;;;;;;;;;;;22.93;33.86;97630.59;5023300;28;790;-79
2023/06/19 03:58:25;;;;;;;;;;;;;;;23.01;33.03;97626.25;5037240;28;1247;-79
2023/06/19 04:00:51;;;;;;;;;;;;;;;22.73;33.21;97628.84;5039006;28;1219;-79
2023/06/19 04:03:17;;;;;;;;;;;;;;;22.62;32.99;97629.25;5022143;28;1293;-79
2023/06/19 04:05:44;;;;;;;;;;;;;;;22.60;33.00;97636.66;5023071;28;1196;-79
2023/06/19 04:08:11;;;;;;;;;;;;;;;22.68;32.39;97632.28;5049480;28;1122;-80
2023/06/19 04:10:37;;;;;;;;;;;;;;;22.44;32.78;97634.78;5037661;28;1963;-79
2023/06/19 04:13:02;;;;;;;;;;;;;;;22.38;32.47;97630.16;5020376;28;1122;-79
2023/06/19 04:15:31;;;;;;;;;;;;;;;22.43;32.40;97638.06;5005240;28;1262;-79
2023/06/19 04:18:00;;;;;;;;;;;;;;;22.53;31.99;97629.19;4985058;28;1332;-79
2023/06/19 04:20:26;;;;;;;;;;;;;;;22.60;31.85;97626.09;5001810;28;1159;-79
2023/06/19 04:22:51;;;;;;;;;;;;;;;22.36;31.85;97637.06;5001247;28;886;-79
2023/06/19 04:25:18;;;;;;;;;;;;;;;22.33;32.02;97638.00;4985244;28;1225;-79
2023/06/19 04:27:44;;;;;;;;;;;;;;;22.53;31.42;97639.72;5001407;28;885;-79
2023/06/19 04:30:10;;;;;;;;;;;;;;;22.56;31.25;97648.13;4984948;28;1906;-79
2023/06/19 04:32:36;;;;;;;;;;;;;;;22.57;31.09;97638.34;4985469;28;1027;-79
2023/06/19 04:35:02;;;;;;;;;;;;;;;22.26;31.51;97641.06;5000949;28;964;-79
2023/06/19 04:37:27;;;;;;;;;;;;;;;22.51;31.25;97647.91;4985366;28;1105;-79
2023/06/19 04:39:53;;;;;;;;;;;;;;;22.43;31.30;97655.06;5000320;28;842;-79
2023/06/19 04:42:19;;;;;;;;;;;;;;;22.47;31.29;97652.91;4985302;28;848;-79
2023/06/19 04:44:47;;;;;;;;;;;;;;;22.32;31.49;97656.25;4984313;28;1284;-79
2023/06/19 04:47:13;;;;;;;;;;;;;;;22.43;31.01;97655.06;4985357;28;850;-80
2023/06/19 04:49:38;;;;;;;;;;;;;;;22.15;31.41;97666.16;4983146;28;1077;-79
2023/06/19 04:52:04;;;;;;;;;;;;;;;22.28;31.09;97661.28;4967030;28;1922;-79
2023/06/19 04:54:32;;;;;;;;;;;;;;;22.39;31.08;97671.44;4983322;28;1273;-79
2023/06/19 04:56:58;;;;;;;;;;;;;;;22.14;31.28;97656.09;4984764;28;1354;-79
2023/06/19 04:59:23;;;;;;;;;;;;;;;22.06;31.38;97666.03;4989765;28;1374;-79
2023/06/19 05:01:49;;;;;;;;;;;;;;;22.40;30.63;97668.13;4975814;28;1336;-79
2023/06/19 05:04:15;;;;;;;;;;;;;;;22.17;31.21;97669.31;4989543;28;1230;-79
2023/06/19 05:06:40;;;;;;;;;;;;;;;22.21;31.04;97677.72;4990681;28;1236;-79
2023/06/19 05:09:06;;;;;;;;;;;;;;;22.15;30.93;97673.88;4972038;28;1242;-79
2023/06/19 05:11:31;;;;;;;;;;;;;;;22.21;30.98;97677.72;4991717;28;1938;-80
2023/06/19 05:13:57;;;;;;;;;;;;;;;22.12;30.95;97686.91;4990652;28;1237;-79
2023/06/19 05:16:24;;;;;;;;;;;;;;;22.05;30.79;97687.91;4974227;28;1289;-79
2023/06/19 05:18:51;;;;;;;;;;;;;;;22.14;30.67;97684.41;4972349;28;1309;-79
2023/06/19 05:21:17;;;;;;;;;;;;;;;22.07;30.89;97681.78;4975942;28;1214;-79
2023/06/19 05:23:42;;;;;;;;;;;;;;;22.30;30.12;97681.44;5034834;28;1321;-79
2023/06/19 05:26:08;;;;;;;;;;;;;;;22.13;30.55;97682.06;5013869;28;1288;-79
2023/06/19 05:28:33;;;;;;;;;;;;;;;22.38;30.09;97681.19;5009399;28;1313;-79
2023/06/19 05:30:59;;;;;;;;;;;;;;;22.42;29.90;97682.63;4985181;28;1914;-79
2023/06/19 05:33:24;;;;;;;;;;;;;;;22.45;30.20;97689.44;5018016;28;1242;-79
2023/06/19 05:35:53;;;;;;;;;;;;;;;22.34;30.19;97687.78;5004318;28;950;-80
2023/06/19 05:38:20;;;;;;;;;;;;;;;22.14;30.50;97695.75;5002781;28;1123;-79
2023/06/19 05:40:45;;;;;;;;;;;;;;;21.82;30.98;97694.75;5020320;28;944;-79
2023/06/19 05:43:11;;;;;;;;;;;;;;;22.24;30.50;97700.28;5019124;28;888;-79
2023/06/19 05:45:37;;;;;;;;;;;;;;;22.11;30.89;97702.31;5027062;28;1276;-79
2023/06/19 05:48:03;;;;;;;;;;;;;;;22.20;30.49;97699.59;5038734;28;1059;-79
2023/06/19 05:50:28;;;;;;;;;;;;;;;22.06;30.75;97700.81;4989975;28;1985;-79
2023/06/19 05:52:54;;;;;;;;;;;;;;;22.23;30.43;97704.34;5022439;28;929;-79
2023/06/19 05:55:20;;;;;;;;;;;;;;;22.17;30.60;97706.16;5039583;28;947;-79
2023/06/19 05:57:45;;;;;;;;;;;;;;;22.18;30.57;97707.78;5022516;28;850;-80
2023/06/19 06:00:14;;;;;;;;;;;;;;;22.41;29.88;97708.63;5051103;28;796;-79
2023/06/19 06:02:39;;;;;;;;;;;;;;;22.26;30.38;97709.09;5061829;28;785;-79
2023/06/19 06:05:05;;;;;;;;;;;;;;;22.26;30.33;97706.25;5060035;28;835;-79
2023/06/19 06:07:31;;;;;;;;;;;;;;;22.14;30.77;97709.13;5060522;28;1102;-79
2023/06/19 06:09:57;;;;;;;;;;;;;;;22.05;30.73;97704.13;5059069;28;1959;-79
2023/06/19 06:12:22;;;;;;;;;;;;;;;22.33;30.44;97711.72;5027008;28;1226;-79
2023/06/19 06:14:48;;;;;;;;;;;;;;;22.29;30.28;97705.34;5058638;28;854;-79
2023/06/19 06:17:13;;;;;;;;;;;;;;;22.11;30.88;97713.66;5039604;28;796;-79
2023/06/19 06:19:39;;;;;;;;;;;;;;;22.00;30.82;97702.66;5054901;28;947;-79
2023/06/19 06:22:05;;;;;;;;;;;;;;;21.97;30.82;97697.13;5039672;28;1016;-79
2023/06/19 06:24:30;;;;;;;;;;;;;;;21.98;31.06;97698.69;5021562;28;1296;-79
2023/06/19 06:26:56;;;;;;;;;;;;;;;22.12;30.51;97697.44;5032267;28;1046;-79
2023/06/19 06:29:21;;;;;;;;;;;;;;;22.28;30.30;97694.50;5018623;28;940;-79
2023/06/19 06:31:47;;;;;;;;;;;;;;;22.35;30.18;97705.56;5002938;28;2253;-80
2023/06/19 06:34:13;;;;;;;;;;;;;;;22.29;30.08;97701.75;4985647;28;1239;-79
2023/06/19 06:36:39;;;;;;;;;;;;;;;22.32;30.34;97701.59;4986437;28;940;-79
2023/06/19 06:39:05;;;;;;;;;;;;;;;22.24;30.57;97694.59;5001909;28;892;-79
2023/06/19 06:41:31;;;;;;;;;;;;;;;22.19;31.09;97698.00;5003148;28;966;-79
2023/06/19 06:43:57;;;;;;;;;;;;;;;22.28;31.30;97700.94;4985773;28;1092;-79
2023/06/19 06:46:22;;;;;;;;;;;;;;;21.95;32.18;97710.94;4986115;28;1220;-79
2023/06/19 06:48:49;;;;;;;;;;;;;;;22.40;31.58;97707.03;5034450;28;1005;-79
2023/06/19 06:51:14;;;;;;;;;;;;;;;22.54;31.59;97695.22;5039504;28;1967;-79
2023/06/19 06:53:40;;;;;;;;;;;;;;;22.32;32.14;97715.75;5021909;28;1620;-79
2023/06/19 06:56:06;;;;;;;;;;;;;;;22.32;32.46;97701.59;5039697;28;953;-79
2023/06/19 06:58:31;;;;;;;;;;;;;;;22.36;32.40;97704.31;5037924;28;983;-79
2023/06/19 07:00:57;;;;;;;;;;;;;;;22.32;32.72;97703.63;5040840;28;894;-80
2023/06/19 07:03:22;;;;;;;;;;;;;;;22.47;32.49;97712.44;5038153;28;731;-79
2023/06/19 07:05:48;;;;;;;;;;;;;;;22.68;32.04;97714.53;5023070;28;1318;-79
2023/06/19 07:08:13;;;;;;;;;;;;;;;22.65;31.99;97706.97;5040026;28;824;-79
2023/06/19 07:10:39;;;;;;;;;;;;;;;22.62;32.31;97713.53;5038924;28;1911;-79
2023/06/19 07:13:05;;;;;;;;;;;;;;;22.70;32.02;97706.38;5022041;28;946;-79
2023/06/19 07:15:30;;;;;;;;;;;;;;;22.73;32.18;97708.28;5022822;28;1182;-79
2023/06/19 07:17:57;;;;;;;;;;;;;;;22.54;32.37;97706.56;5021985;28;1208;-79
2023/06/19 07:20:22;;;;;;;;;;;;;;;22.51;32.62;97719.59;5039069;28;1256;-79
2023/06/19 07:22:50;;;;;;;;;;;;;;;22.39;32.45;97719.63;5038785;28;878;-79
2023/06/19 07:25:15;;;;;;;;;;;;;;;22.34;32.73;97709.66;5038703;28;1001;-79
2023/06/19 07:27:41;;;;;;;;;;;;;;;22.52;32.40;97700.53;5038362;28;902;-79
2023/06/19 07:30:07;;;;;;;;;;;;;;;22.47;32.78;97707.56;5037241;28;1910;-79
2023/06/19 07:32:32;;;;;;;;;;;;;;;22.39;32.74;97716.78;5021518;28;857;-79
2023/06/19 07:34:58;;;;;;;;;;;;;;;22.32;33.01;97709.31;4987901;28;1230;-79
2023/06/19 07:37:23;;;;;;;;;;;;;;;22.51;32.89;97708.25;5021407;28;976;-79
2023/06/19 07:39:49;;;;;;;;;;;;;;;22.65;32.50;97712.63;5036999;28;905;-79
2023/06/19 07:42:15;;;;;;;;;;;;;;;22.66;32.23;97708.53;4989026;28;1493;-79
2023/06/19 07:44:41;;;;;;;;;;;;;;;22.55;32.82;97713.78;5020824;28;1158;-79
2023/06/19 07:47:07;;;;;;;;;;;;;;;22.70;32.26;97720.56;5037933;28;1056;-79
2023/06/19 07:49:32;;;;;;;;;;;;;;;22.61;32.74;97718.41;5003724;28;1112;-79
2023/06/19 07:51:58;;;;;;;;;;;;;;;22.63;32.52;97723.63;5004656;28;1922;-79
2023/06/19 07:54:23;;;;;;;;;;;;;;;22.58;32.88;97735.53;5020560;28;1114;-79
2023/06/19 07:56:49;;;;;;;;;;;;;;;22.68;32.53;97736.44;4998242;28;1226;-79
2023/06/19 07:59:14;;;;;;;;;;;;;;;22.73;32.70;97733.00;5014108;28;1000;-79
2023/06/19 08:01:40;;;;;;;;;;;;;;;22.93;31.98;97721.38;5017556;28;916;-79
2023/06/19 08:04:06;;;;;;;;;;;;;;;22.73;32.59;97727.34;5000961;28;1134;-79
2023/06/19 08:06:31;;;;;;;;;;;;;;;22.67;32.66;97727.13;5017851;28;890;-79
2023/06/19 08:08:57;;;;;;;;;;;;;;;22.69;32.67;97718.97;5017022;28;1230;-79
2023/06/19 08:11:22;;;;;;;;;;;;;;;22.43;32.91;97740.13;5001465;28;1999;-79
2023/06/19 08:13:48;;;;;;;;;;;;;;;22.69;32.42;97740.84;5016637;28;1036;-80
2023/06/19 08:16:13;;;;;;;;;;;;;;;22.78;32.19;97738.09;5017985;28;946;-79
2023/06/19 08:18:39;;;;;;;;;;;;;;;22.68;32.27;97740.06;5016822;28;882;-79
2023/06/19 08:21:04;;;;;;;;;;;;;;;22.69;32.29;97747.34;5017709;28;1253;-78
2023/06/19 08:23:30;;;;;;;;;;;;;;;22.83;32.26;97755.31;5016277;28;1021;-79
2023/06/19 08:25:55;;;;;;;;;;;;;;;22.56;32.68;97757.91;5017968;28;815;-79
2023/06/19 08:28:21;;;;;;;;;;;;;;;22.48;32.60;97754.50;5016577;28;1107;-79
2023/06/19 08:30:46;;;;;;;;;;;;;;;22.48;32.78;97748.06;5001736;28;1914;-78
2023/06/19 08:33:15;;;;;;;;;;;;;;;22.75;32.45;97756.84;5016543;28;957;-79
2023/06/19 08:35:40;;;;;;;;;;;;;;;22.78;32.24;97752.28;5017537;28;928;-78
2023/06/19 08:38:06;;;;;;;;;;;;;;;22.70;32.33;97762.31;5027521;28;1135;-79
2023/06/19 08:40:31;;;;;;;;;;;;;;;22.52;32.83;97760.06;5037659;28;929;-78
2023/06/19 08:42:57;;;;;;;;;;;;;;;22.52;32.46;97760.06;5021052;28;1375;-78
2023/06/19 08:45:22;;;;;;;;;;;;;;;22.75;32.26;97765.34;5020208;28;1188;-79
2023/06/19 08:47:48;;;;;;;;;;;;;;;22.81;32.07;97757.84;5021801;28;1186;-79
2023/06/19 08:50:15;;;;;;;;;;;;;;;22.71;32.14;97761.06;5037625;28;1977;-79
2023/06/19 08:52:40;;;;;;;;;;;;;;;22.66;32.55;97765.25;5020451;28;1127;-79
2023/06/19 08:55:07;;;;;;;;;;;;;;;22.56;32.41;97767.22;5003186;28;1307;-79
2023/06/19 08:57:36;;;;;;;;;;;;;;;22.61;32.49;97766.63;5019580;28;1446;-79
2023/06/19 09:00:02;;;;;;;;;;;;;;;22.65;32.47;97762.88;5003265;28;1448;-79
2023/06/19 09:02:40;;;;;;;;;;;;;;;22.76;32.12;97772.59;5007276;28;1285;-79
2023/06/19 09:05:13;;;;;;;;;;;;;;;22.60;32.35;97769.94;5036852;28;1333;-78
2023/06/19 09:07:38;;;;;;;;;;;;;;;22.72;32.28;97773.97;5027834;28;1368;-79
2023/06/19 09:10:17;;;;;;;;;;;;;;;22.63;32.36;97774.66;5028325;28;1914;-79
2023/06/19 09:12:55;;;;;;;;;;;;;;;22.67;32.33;97780.22;5027910;28;1191;-79
2023/06/19 09:15:21;;;;;;;;;;;;;;;22.60;32.65;97784.09;5008523;28;1415;-79
2023/06/19 09:17:46;;;;;;;;;;;;;;;22.65;32.42;97786.38;5019213;28;958;-79
2023/06/19 09:20:25;;;;;;;;;;;;;;;22.81;32.03;97789.03;5019391;28;1580;-78
2023/06/19 09:22:54;;;;;;;;;;;;;;;22.76;32.11;97792.47;5006196;28;1076;-79
2023/06/19 09:25:19;;;;;;;;;;;;;;;22.74;32.21;97782.81;5014920;28;1217;-78
2023/06/19 09:27:45;;;;;;;;;;;;;;;22.69;32.67;97792.72;5014461;28;1339;-79
2023/06/19 09:30:14;;;;;;;;;;;;;;;22.84;32.47;97793.00;5029460;28;1910;-78
2023/06/19 09:32:41;;;;;;;;;;;;;;;22.68;32.61;97793.16;5015805;28;1242;-78
2023/06/19 09:35:06;;;;;;;;;;;;;;;22.70;32.48;97794.28;5021833;28;982;-78
2023/06/19 09:37:32;;;;;;;;;;;;;;;22.80;32.15;97790.28;5039198;28;940;-79
2023/06/19 09:40:00;;;;;;;;;;;;;;;22.85;32.16;97788.94;5022477;28;1296;-79
2023/06/19 09:42:34;;;;;;;;;;;;;;;22.63;32.84;97788.84;5023930;28;1168;-78
2023/06/19 09:45:01;;;;;;;;;;;;;;;22.76;32.56;97798.13;5041634;28;1096;-79
2023/06/19 09:47:29;;;;;;;;;;;;;;;22.67;32.60;97795.19;5044427;28;1000;-79
2023/06/19 09:49:55;;;;;;;;;;;;;;;22.80;32.43;97793.13;5059524;28;1959;-79
2023/06/19 09:52:24;;;;;;;;;;;;;;;22.75;32.70;97790.88;5044059;28;1459;-79
2023/06/19 09:54:50;;;;;;;;;;;;;;;22.86;32.13;97791.28;5038596;28;1063;-78
2023/06/19 09:57:16;;;;;;;;;;;;;;;22.94;32.18;97791.06;5039826;28;980;-79
2023/06/19 09:59:42;;;;;;;;;;;;;;;22.85;32.09;97795.38;5038410;28;901;-79
2023/06/19 10:02:08;;;;;;;;;;;;;;;22.76;32.55;97789.63;5039583;28;688;-79
2023/06/19 10:04:45;;;;;;;;;;;;;;;22.80;32.40;97793.13;5038824;28;817;-79
2023/06/19 10:07:20;;;;;;;;;;;;;;;22.74;32.57;97783.63;5040004;28;979;-79
2023/06/19 10:09:58;;;;;;;;;;;;;;;22.72;32.31;97791.78;5039071;28;957;-79
2023/06/19 10:12:44;;;;;;;;;;;;;;;22.68;32.36;97778.97;5038909;28;785;-79
2023/06/19 10:15:15;;;;;;;;;;;;;;;22.67;32.36;97785.91;5036418;28;1573;-78
2023/06/19 10:17:44;;;;;;;;;;;;;;;22.74;32.39;97789.28;5003687;28;1065;-79
2023/06/19 10:20:37;;;;;;;;;;;;;;;22.60;32.46;97789.78;5018513;28;855;-79
2023/06/19 10:23:03;;;;;;;;;;;;;;;22.77;31.99;97788.38;5003924;28;928;-79
2023/06/19 10:25:31;;;;;;;;;;;;;;;22.87;31.78;97792.88;5009891;28;967;-79
2023/06/19 10:27:57;;;;;;;;;;;;;;;21.45;31.84;97563.28;5039571;28;919;-79
2023/06/19 10:30:22;;;;;;;;;;;;;;;22.74;32.32;97794.97;5039333;28;1902;-78
2023/06/19 10:32:48;;;;;;;;;;;;;;;22.79;31.85;97800.03;5040074;28;1293;-79
2023/06/19 10:35:14;;;;;;;;;;;;;;;22.68;32.41;97807.34;5040389;28;893;-79
2023/06/19 10:37:40;;;;;;;;;;;;;;;22.54;32.24;97805.78;5039164;28;1199;-78
2023/06/19 10:40:08;;;;;;;;;;;;;;;22.63;32.44;97791.69;5038661;28;851;-78
2023/06/19 10:42:34;;;;;;;;;;;;;;;22.63;32.33;97794.53;5022255;28;940;-78
2023/06/19 10:45:01;;;;;;;;;;;;;;;22.86;31.52;97788.47;5039927;28;1012;-78
2023/06/19 10:47:28;;;;;;;;;;;;;;;22.85;31.63;97788.94;5042422;28;743;-78
2023/06/19 10:49:53;;;;;;;;;;;;;;;22.87;31.94;97790.03;5042196;28;1306;-79
2023/06/19 10:52:19;;;;;;;;;;;;;;;22.99;31.76;97781.97;5042615;28;1961;-78
2023/06/19 10:54:44;;;;;;;;;;;;;;;22.94;31.55;97785.38;5059757;28;785;-78
2023/06/19 10:57:10;;;;;;;;;;;;;;;22.86;32.01;97785.63;5058488;28;1248;-78
2023/06/19 10:59:36;;;;;;;;;;;;;;;22.98;31.62;97772.66;5025571;28;1349;-78
2023/06/19 11:02:01;;;;;;;;;;;;;;;22.96;31.55;97783.69;5060424;28;971;-79
2023/06/19 11:04:27;;;;;;;;;;;;;;;22.86;31.91;97779.94;5041310;28;1206;-78
2023/06/19 11:06:52;;;;;;;;;;;;;;;22.58;32.44;97775.25;5042183;28;860;-78
2023/06/19 11:09:19;;;;;;;;;;;;;;;23.00;31.55;97767.34;5041606;28;801;-78
2023/06/19 11:11:45;;;;;;;;;;;;;;;23.06;31.54;97764.69;5024697;28;1953;-79
2023/06/19 11:14:12;;;;;;;;;;;;;;;22.72;32.01;97769.09;5024907;28;838;-78
2023/06/19 11:16:38;;;;;;;;;;;;;;;22.94;31.97;97774.03;5042431;28;1397;-78
2023/06/19 11:19:05;;;;;;;;;;;;;;;22.82;31.74;97762.25;5041799;28;803;-78
2023/06/19 11:21:40;;;;;;;;;;;;;;;22.89;32.19;97769.75;5059859;28;785;-78
2023/06/19 11:24:10;;;;;;;;;;;;;;;22.86;32.21;97774.28;5041143;28;761;-78
2023/06/19 11:26:38;;;;;;;;;;;;;;;22.96;31.85;97765.88;5001762;28;1211;-78
2023/06/19 11:29:22;;;;;;;;;;;;;;;22.72;32.24;97771.13;5016966;28;1010;-78
2023/06/19 11:31:49;;;;;;;;;;;;;;;22.96;31.70;97763.84;5001346;28;1903;-78
2023/06/19 11:34:14;;;;;;;;;;;;;;;22.77;32.26;97764.88;5016854;28;973;-78
2023/06/19 11:36:40;;;;;;;;;;;;;;;22.94;31.99;97762.69;5001237;28;1211;-78
2023/06/19 11:39:09;;;;;;;;;;;;;;;22.91;31.79;97758.75;5016554;28;1253;-78
2023/06/19 11:41:35;;;;;;;;;;;;;;;23.02;31.55;97758.34;5017611;28;1136;-78
2023/06/19 11:44:03;;;;;;;;;;;;;;;22.79;32.10;97766.00;5017094;28;1195;-78
2023/06/19 11:46:29;;;;;;;;;;;;;;;22.92;31.86;97766.00;5034341;28;1345;-78
2023/06/19 11:48:56;;;;;;;;;;;;;;;22.94;31.69;97762.69;5033113;28;1094;-78
2023/06/19 11:51:21;;;;;;;;;;;;;;;22.98;31.57;97769.81;5017040;28;1910;-78
2023/06/19 11:53:47;;;;;;;;;;;;;;;23.02;31.40;97764.03;5016614;28;1113;-78
2023/06/19 11:56:12;;;;;;;;;;;;;;;22.91;31.96;97774.97;4984937;28;1033;-78
2023/06/19 11:58:38;;;;;;;;;;;;;;;22.87;31.86;97770.19;5053548;28;835;-78
2023/06/19 12:01:03;;;;;;;;;;;;;;;22.82;31.86;97773.59;5040770;28;892;-78
2023/06/19 12:03:29;;;;;;;;;;;;;;;22.54;32.44;97764.03;5039987;28;985;-78
2023/06/19 12:05:54;;;;;;;;;;;;;;;22.66;32.07;97770.94;5001048;28;980;-78
2023/06/19 12:08:20;;;;;;;;;;;;;;;22.80;31.86;97759.09;5000435;28;949;-78
2023/06/19 12:10:45;;;;;;;;;;;;;;;22.79;31.75;97762.38;4997683;28;1977;-78
2023/06/19 12:13:11;;;;;;;;;;;;;;;22.62;32.29;97770.25;4980911;28;1488;-78
2023/06/19 12:15:36;;;;;;;;;;;;;;;22.75;31.86;97762.50;4997564;28;787;-78
2023/06/19 12:18:03;;;;;;;;;;;;;;;22.93;31.63;97761.91;4980702;28;845;-79
2023/06/19 12:20:29;;;;;;;;;;;;;;;22.76;31.75;97758.41;4996945;28;845;-78
2023/06/19 12:22:55;;;;;;;;;;;;;;;22.81;31.80;97760.66;4974033;28;1006;-78
2023/06/19 12:25:20;;;;;;;;;;;;;;;22.80;31.79;97770.44;4958384;28;923;-78
2023/06/19 12:27:46;;;;;;;;;;;;;;;22.94;31.59;97757.00;4942008;28;976;-78
2023/06/19 12:30:12;;;;;;;;;;;;;;;22.70;31.95;97751.75;4957316;28;1915;-78
2023/06/19 12:32:37;;;;;;;;;;;;;;;22.93;31.38;97749.75;4974608;28;933;-78
2023/06/19 12:35:03;;;;;;;;;;;;;;;22.84;31.65;97741.94;4942912;29;719;-78
2023/06/19 12:37:29;;;;;;;;;;;;;;;22.98;31.28;97746.34;4946521;29;826;-78
2023/06/19 12:39:55;;;;;;;;;;;;;;;22.85;31.58;97744.31;4945640;28;884;-78
2023/06/19 12:42:20;;;;;;;;;;;;;;;22.86;31.51;97745.91;4966421;28;877;-78
2023/06/19 12:44:46;;;;;;;;;;;;;;;23.10;31.18;97736.97;5000293;28;1063;-79
2023/06/19 12:47:12;;;;;;;;;;;;;;;22.84;31.59;97737.03;4984581;28;1217;-78
2023/06/19 12:49:37;;;;;;;;;;;;;;;22.89;31.36;97738.53;4968146;28;1211;-79
2023/06/19 12:52:03;;;;;;;;;;;;;;;22.96;31.48;97737.50;5001550;28;1971;-78
2023/06/19 12:54:28;;;;;;;;;;;;;;;22.72;31.84;97737.91;5012554;28;975;-78
2023/06/19 12:56:54;;;;;;;;;;;;;;;22.87;31.33;97744.66;5028681;28;1325;-78